Madeline — WDE3220 — position and weather

sailwx.info

Track history (hours):
 
Tides and Currents Weather Stations Pressure Air Temp Water Temp Dewpoint Dewpoint Depression Visibility Wind Speed Wind Dir Waves Ship Positions

Madeline

Owner: TUG MADELINE, LLC, NEW CASTLE, DE. More information available from US FCC via Universal Licensing System and Coast Guard Vessel Documentation Center.

Last reported at 2017-May-22 23:01 UTC. Time now 2017-May-22 23:20 UTC.
Position N 39°43' W 075°31'.

Length 23 m; draft 4.6 m.

Type: Tug. MMSI: 367335830.

Date/timePositionNaut miles runAvg speedWind from/ knotsBaromVisibWave heightAir tempDewpointWater temp
2017-May-22 23:01N 39°43' W 075°31'0 0.0
2017-May-22 22:30N 39°43' W 075°31'0 0.0
2017-May-22 22:00N 39°43' W 075°31'0 0.0
2017-May-22 21:31N 39°43' W 075°31'0 0.0
2017-May-22 21:00N 39°43' W 075°31'0 0.0
2017-May-22 20:31N 39°43' W 075°31'0 0.0
2017-May-22 20:00N 39°43' W 075°31'0 0.0
2017-May-22 19:31N 39°43' W 075°31'0 0.0
2017-May-22 19:00N 39°43' W 075°31'0 0.0
2017-May-22 18:30N 39°43' W 075°31'0 0.0
2017-May-22 18:00N 39°43' W 075°31'0 0.0
2017-May-22 17:30N 39°43' W 075°31'0 0.0
2017-May-22 17:00N 39°43' W 075°31'0 0.0
2017-May-22 16:30N 39°43' W 075°31'0 0.0
2017-May-22 16:00N 39°43' W 075°31'0 0.0
2017-May-22 15:30N 39°43' W 075°31'2 4.1
2017-May-22 15:00N 39°41' W 075°32'1110.7
2017-May-22 14:00N 39°30' W 075°33'611.2
2017-May-22 13:30N 39°25' W 075°31'612.4
2017-May-22 13:00N 39°20' W 075°26'612.0
2017-May-22 12:30N 39°16' W 075°21'612.1
2017-May-22 12:01N 39°11' W 075°16'612.0
2017-May-22 11:30N 39°06' W 075°12'11 1.8
2017-May-22 05:11N 38°55' W 075°09'0 0.1
2017-May-22 05:00N 38°55' W 075°09'0 0.0
2017-May-22 04:30N 38°55' W 075°09'0 0.0
2017-May-22 04:00N 38°55' W 075°09'1 2.9
2017-May-22 03:30N 38°54' W 075°07'4 4.4
2017-May-22 02:36N 38°57' W 075°11'0 0.1
2017-May-22 02:26N 38°57' W 075°11'0 0.6
2017-May-22 01:58N 38°57' W 075°11'4 8.6
2017-May-22 01:29N 38°55' W 075°06'1412.0
2017-May-22 00:19N 39°08' W 075°14'411.3
2017-May-21 23:59N 39°11' W 075°16'510.3
2017-May-21 23:30N 39°15' W 075°19'5 9.7
2017-May-21 23:00N 39°19' W 075°24'4 8.9
2017-May-21 22:30N 39°22' W 075°28'4 8.9
2017-May-21 22:01N 39°25' W 075°31'4 8.3
2017-May-21 21:31N 39°29' W 075°34'4 7.0
2017-May-21 21:00N 39°32' W 075°33'3 6.6
2017-May-21 20:31N 39°35' W 075°35'0 0.2
2017-May-21 20:00N 39°35' W 075°35'3 5.6
2017-May-21 19:30N 39°38' W 075°36'611.5
2017-May-21 19:01N 39°42' W 075°31'1 1.8
2017-May-21 18:30N 39°43' W 075°31'0 0.0
2017-May-21 18:00N 39°43' W 075°31'0 0.0
2017-May-21 17:30N 39°43' W 075°31'0 0.0
2017-May-21 17:00N 39°43' W 075°31'0 0.0
2017-May-21 16:30N 39°43' W 075°31'0 0.0
2017-May-21 16:00N 39°43' W 075°31'0 0.0
2017-May-21 15:30N 39°43' W 075°31'0 0.0
2017-May-21 15:00N 39°43' W 075°31'0 0.0
2017-May-21 14:00N 39°43' W 075°31'0 0.0
2017-May-21 13:30N 39°43' W 075°31'0 0.0
2017-May-21 13:00N 39°43' W 075°31'0 0.0
2017-May-21 12:30N 39°43' W 075°31'0 0.0
2017-May-21 12:00N 39°43' W 075°31'0 0.0
2017-May-21 11:30N 39°43' W 075°31'0 0.0
2017-May-21 11:00N 39°43' W 075°31'0 0.0
2017-May-21 10:30N 39°43' W 075°31'0 0.0
2017-May-21 10:00N 39°43' W 075°31'0 0.0
2017-May-21 09:30N 39°43' W 075°31'0 0.0
2017-May-21 09:00N 39°43' W 075°31'0 0.0
2017-May-21 08:30N 39°43' W 075°31'0 0.0
2017-May-21 08:00N 39°43' W 075°31'0 0.0
2017-May-21 07:30N 39°43' W 075°31'0 0.0
2017-May-21 07:00N 39°43' W 075°31'0 0.0
2017-May-21 06:30N 39°43' W 075°31'0 0.0
2017-May-21 06:00N 39°43' W 075°31'0 0.0
2017-May-21 05:30N 39°43' W 075°31'4 7.9
2017-May-21 05:00N 39°46' W 075°28'3 5.1
2017-May-21 04:22N 39°48' W 075°25'0 0.2
2017-May-21 04:01N 39°48' W 075°25'2 3.1
2017-May-21 03:30N 39°48' W 075°27'4 7.8
2017-May-21 03:01N 39°45' W 075°30'2 4.4
2017-May-21 02:31N 39°42' W 075°30'0 0.2
2017-May-21 02:00N 39°42' W 075°31'1 1.6
2017-May-21 01:31N 39°43' W 075°31'0 0.0
2017-May-21 01:01N 39°43' W 075°31'0 0.0
2017-May-21 00:30N 39°43' W 075°31'0 0.0
2017-May-21 00:01N 39°43' W 075°31'0 0.0
2017-May-20 23:31N 39°43' W 075°31'0 0.0
2017-May-20 23:01N 39°43' W 075°31'0 0.0
2017-May-20 22:30N 39°43' W 075°31'0 0.0
2017-May-20 22:00N 39°43' W 075°31'0 0.0
2017-May-20 21:30N 39°43' W 075°31'0 0.0
2017-May-20 21:01N 39°43' W 075°31'0 0.4
2017-May-20 20:30N 39°43' W 075°31'0 0.0
2017-May-20 20:00N 39°43' W 075°31'0 0.5
2017-May-20 19:30N 39°43' W 075°31'2 3.8
2017-May-20 19:01N 39°41' W 075°31'2 3.3
2017-May-20 18:30N 39°43' W 075°31'0 0.2
2017-May-20 18:01N 39°42' W 075°31'612.6
2017-May-20 17:30N 39°48' W 075°26'612.9
2017-May-20 17:00N 39°51' W 075°19'612.1
2017-May-20 16:30N 39°53' W 075°11'0 0.7
2017-May-20 16:00N 39°53' W 075°11'0 0.0
2017-May-20 15:30N 39°53' W 075°11'0 0.0
2017-May-20 15:00N 39°53' W 075°11'0 0.0
2017-May-20 14:30N 39°53' W 075°11'0 0.0
2017-May-20 13:30N 39°53' W 075°11'0 0.0
2017-May-20 13:00N 39°53' W 075°11'0 0.0
2017-May-20 12:30N 39°53' W 075°11'0 0.0
2017-May-20 12:00N 39°53' W 075°11'0 0.0
2017-May-20 11:30N 39°53' W 075°11'0 0.0
2017-May-20 11:00N 39°53' W 075°11'0 0.0
2017-May-20 10:30N 39°53' W 075°11'0 0.0
2017-May-20 10:00N 39°53' W 075°11'0 0.0
2017-May-20 09:30N 39°53' W 075°11'0 0.0
2017-May-20 09:00N 39°53' W 075°11'0 0.0
2017-May-20 08:30N 39°53' W 075°11'0 0.0
2017-May-20 08:00N 39°53' W 075°11'0 0.0
2017-May-20 07:30N 39°53' W 075°11'0 0.0
2017-May-20 07:00N 39°53' W 075°11'0 0.0
2017-May-20 06:30N 39°53' W 075°11'0 0.0
2017-May-20 06:00N 39°53' W 075°11'0 0.0
2017-May-20 05:30N 39°53' W 075°11'0 0.0
2017-May-20 05:00N 39°53' W 075°11'0 0.0
2017-May-20 04:30N 39°53' W 075°11'0 0.0
2017-May-20 04:00N 39°53' W 075°11'1 2.4
2017-May-20 03:30N 39°54' W 075°12'0 0.0
2017-May-20 02:57N 39°54' W 075°12'0 0.7
2017-May-20 02:30N 39°54' W 075°12'2 3.6
2017-May-20 02:00N 39°52' W 075°13'2 3.8
2017-May-20 01:30N 39°53' W 075°11'0 0.0
2017-May-20 01:00N 39°53' W 075°11'0 0.0
2017-May-20 00:30N 39°53' W 075°11'0 0.0
2017-May-20 00:00N 39°53' W 075°11'0 0.0
2017-May-19 23:30N 39°53' W 075°11'0 0.0
2017-May-19 23:00N 39°53' W 075°11'0 0.0
2017-May-19 22:30N 39°53' W 075°11'0 0.0
2017-May-19 22:00N 39°53' W 075°11'0 0.0
2017-May-19 21:30N 39°53' W 075°11'0 0.0
2017-May-19 21:00N 39°53' W 075°11'0 0.0
2017-May-19 20:30N 39°53' W 075°11'0 0.0
2017-May-19 20:00N 39°53' W 075°11'0 0.0
2017-May-19 19:30N 39°53' W 075°11'0 0.0
2017-May-19 19:00N 39°53' W 075°11'0 0.0
2017-May-19 18:30N 39°53' W 075°11'0 0.0
2017-May-19 18:00N 39°53' W 075°11'0 0.0
2017-May-19 17:30N 39°53' W 075°11'0 0.0
2017-May-19 17:00N 39°53' W 075°11'0 0.0
2017-May-19 16:30N 39°53' W 075°11'0 0.0
2017-May-19 16:00N 39°53' W 075°11'0 0.0
2017-May-19 15:30N 39°53' W 075°11'0 0.0
2017-May-19 15:00N 39°53' W 075°11'0 0.0
2017-May-19 14:00N 39°53' W 075°11'0 0.0
2017-May-19 13:30N 39°53' W 075°11'0 0.0
2017-May-19 13:00N 39°53' W 075°11'0 0.0
2017-May-19 12:30N 39°53' W 075°11'0 0.0
2017-May-19 12:00N 39°53' W 075°11'0 0.0
2017-May-19 11:30N 39°53' W 075°11'0 0.0
2017-May-19 11:00N 39°53' W 075°11'0 0.0
2017-May-19 10:30N 39°53' W 075°11'0 0.0
2017-May-19 10:00N 39°53' W 075°11'0 0.0
2017-May-19 09:30N 39°53' W 075°11'0 0.0
2017-May-19 09:00N 39°53' W 075°11'0 0.0
2017-May-19 08:30N 39°53' W 075°11'0 0.0
2017-May-19 08:00N 39°53' W 075°11'0 0.0
2017-May-19 07:30N 39°53' W 075°11'0 0.0
2017-May-19 07:00N 39°53' W 075°11'0 0.0
2017-May-19 06:30N 39°53' W 075°11'0 0.0
2017-May-19 06:00N 39°53' W 075°11'0 0.0
2017-May-19 05:30N 39°53' W 075°11'0 0.0
2017-May-19 05:00N 39°53' W 075°11'0 0.0
2017-May-19 04:30N 39°53' W 075°11'0 0.0
2017-May-19 04:00N 39°53' W 075°11'0 0.0
2017-May-19 03:30N 39°53' W 075°11'0 0.0
2017-May-19 03:00N 39°53' W 075°11'0 0.0
2017-May-19 02:30N 39°53' W 075°11'2 3.2
2017-May-19 02:00N 39°52' W 075°13'0 0.5
2017-May-19 01:30N 39°52' W 075°13'0 0.0
2017-May-19 01:00N 39°52' W 075°13'0 0.2
2017-May-19 00:30N 39°52' W 075°13'2 3.5
2017-May-19 00:00N 39°51' W 075°15'2 3.9
2017-May-18 23:23N 39°52' W 075°12'1 3.4
2017-May-18 23:00N 39°53' W 075°11'0 0.0
2017-May-18 22:30N 39°53' W 075°11'0 0.0
2017-May-18 22:00N 39°53' W 075°11'0 0.0
2017-May-18 21:30N 39°53' W 075°11'0 0.0
2017-May-18 21:00N 39°53' W 075°11'0 0.0
2017-May-18 20:30N 39°53' W 075°11'0 0.0
2017-May-18 20:00N 39°53' W 075°11'0 0.0
2017-May-18 19:30N 39°53' W 075°11'0 0.0
2017-May-18 19:00N 39°53' W 075°11'0 0.0
2017-May-18 18:30N 39°53' W 075°11'0 0.0
2017-May-18 18:00N 39°53' W 075°11'0 0.0
2017-May-18 17:30N 39°53' W 075°11'0 0.0
2017-May-18 17:00N 39°53' W 075°11'0 0.0
2017-May-18 16:30N 39°53' W 075°11'0 0.0
2017-May-18 16:00N 39°53' W 075°11'0 0.0
2017-May-18 15:30N 39°53' W 075°11'0 0.0
2017-May-18 15:00N 39°53' W 075°11'0 0.0
2017-May-18 14:00N 39°53' W 075°11'0 0.0
2017-May-18 13:30N 39°53' W 075°11'0 0.0
2017-May-18 13:00N 39°53' W 075°11'2 3.9
2017-May-18 12:30N 39°52' W 075°13'3 5.2
2017-May-18 12:00N 39°51' W 075°16'0 0.1
2017-May-18 11:29N 39°51' W 075°16'0 0.0
2017-May-18 11:00N 39°51' W 075°16'0 0.6
2017-May-18 10:30N 39°51' W 075°16'0 0.4
2017-May-18 10:00N 39°51' W 075°16'1 2.7
2017-May-18 09:30N 39°51' W 075°14'3 6.1
2017-May-18 09:00N 39°53' W 075°11'0 0.0
2017-May-18 08:30N 39°53' W 075°11'0 0.0
2017-May-18 07:56N 39°53' W 075°11'0 0.0
2017-May-18 07:30N 39°53' W 075°11'0 0.0
2017-May-18 07:00N 39°53' W 075°11'0 0.0
2017-May-18 06:30N 39°53' W 075°11'0 0.0
2017-May-18 06:00N 39°53' W 075°11'0 0.0
2017-May-18 05:30N 39°53' W 075°11'0 0.0
2017-May-18 05:00N 39°53' W 075°11'0 0.0
2017-May-18 04:30N 39°53' W 075°11'0 0.0
2017-May-18 04:00N 39°53' W 075°11'0 0.0
2017-May-18 03:30N 39°53' W 075°11'0 0.0
2017-May-18 03:00N 39°53' W 075°11'0 0.0
2017-May-18 02:30N 39°53' W 075°11'0 0.0
2017-May-18 02:00N 39°53' W 075°11'0 0.0
2017-May-18 01:30N 39°53' W 075°11'0 0.0
2017-May-18 01:00N 39°53' W 075°11'0 0.0
2017-May-18 00:30N 39°53' W 075°11'0 0.0
2017-May-18 00:00N 39°53' W 075°11'0 0.3
2017-May-17 23:30N 39°53' W 075°11'0 0.3
2017-May-17 23:00N 39°53' W 075°11'0 0.0
2017-May-17 22:30N 39°53' W 075°11'0 0.0
2017-May-17 22:00N 39°53' W 075°11'0 0.0
2017-May-17 21:30N 39°53' W 075°11'0 0.0
2017-May-17 21:00N 39°53' W 075°11'0 0.0
2017-May-17 20:30N 39°53' W 075°11'0 0.0
2017-May-17 20:00N 39°53' W 075°11'0 0.0
2017-May-17 19:30N 39°53' W 075°11'0 0.0
2017-May-17 19:00N 39°53' W 075°11'0 0.0
2017-May-17 18:30N 39°53' W 075°11'0 0.0
2017-May-17 18:00N 39°53' W 075°11'0 0.0
2017-May-17 17:31N 39°53' W 075°11'3 7.0
2017-May-17 17:00N 39°51' W 075°15'0 0.4
2017-May-17 16:30N 39°51' W 075°15'0 0.0
2017-May-17 16:00N 39°51' W 075°15'0 0.0
2017-May-17 15:30N 39°51' W 075°15'0 0.0
2017-May-17 15:00N 39°51' W 075°15'4 3.7
2017-May-17 14:00N 39°53' W 075°11'0 0.0
2017-May-17 13:30N 39°53' W 075°11'0 0.0
2017-May-17 13:00N 39°53' W 075°11'0 0.0
2017-May-17 12:30N 39°53' W 075°11'0 0.0
2017-May-17 12:00N 39°53' W 075°11'0 0.0
2017-May-17 11:30N 39°53' W 075°11'0 0.0
2017-May-17 11:00N 39°53' W 075°11'0 0.0
2017-May-17 10:30N 39°53' W 075°11'0 0.0
2017-May-17 10:00N 39°53' W 075°11'0 0.0
2017-May-17 09:30N 39°53' W 075°11'0 0.0
2017-May-17 09:00N 39°53' W 075°11'0 0.0
2017-May-17 08:30N 39°53' W 075°11'0 0.0
2017-May-17 08:00N 39°53' W 075°11'0 0.0
2017-May-17 07:30N 39°53' W 075°11'0 0.0
2017-May-17 07:00N 39°53' W 075°11'1 1.5
2017-May-17 06:30N 39°54' W 075°12'1 2.6
2017-May-17 06:00N 39°55' W 075°13'1 2.2
2017-May-17 05:30N 39°54' W 075°12'1 2.1
2017-May-17 05:00N 39°53' W 075°11'0 0.0
2017-May-17 04:30N 39°53' W 075°11'0 0.0
2017-May-17 04:00N 39°53' W 075°11'0 0.0
2017-May-17 03:30N 39°53' W 075°11'0 0.0
2017-May-17 03:00N 39°53' W 075°11'0 0.0
2017-May-17 02:30N 39°53' W 075°11'0 0.0
2017-May-17 02:00N 39°53' W 075°11'0 0.0
2017-May-17 01:30N 39°53' W 075°11'0 0.0
2017-May-17 01:00N 39°53' W 075°11'2 3.1
2017-May-17 00:30N 39°52' W 075°13'1 2.9
2017-May-17 00:00N 39°51' W 075°14'0 0.4
2017-May-16 23:30N 39°51' W 075°14'1 1.1
2017-May-16 23:00N 39°52' W 075°14'1 2.6
2017-May-16 22:30N 39°52' W 075°12'1 2.3
2017-May-16 22:00N 39°53' W 075°11'0 0.0
2017-May-16 21:30N 39°53' W 075°11'0 0.0
2017-May-16 21:00N 39°53' W 075°11'0 0.0
2017-May-16 20:30N 39°53' W 075°11'0 0.0
2017-May-16 20:00N 39°53' W 075°11'0 0.0
2017-May-16 19:30N 39°53' W 075°11'0 0.0
2017-May-16 19:00N 39°53' W 075°11'0 0.1
2017-May-16 18:31N 39°53' W 075°11'0 0.2
2017-May-16 18:00N 39°53' W 075°11'0 0.0
2017-May-16 17:30N 39°53' W 075°11'0 0.0
2017-May-16 17:00N 39°53' W 075°11'0 0.0
2017-May-16 16:30N 39°53' W 075°11'0 0.0
2017-May-16 16:00N 39°53' W 075°11'0 0.0
2017-May-16 15:30N 39°53' W 075°11'0 0.0
2017-May-16 15:00N 39°53' W 075°11'0 0.0
2017-May-16 14:30N 39°53' W 075°11'0 0.0
2017-May-16 13:30N 39°53' W 075°11'0 0.0
2017-May-16 13:00N 39°53' W 075°11'0 0.0
2017-May-16 12:30N 39°53' W 075°11'0 0.0
2017-May-16 12:00N 39°53' W 075°11'0 0.0
2017-May-16 11:30N 39°53' W 075°11'0 0.0
2017-May-16 11:00N 39°53' W 075°11'0 0.0
2017-May-16 10:30N 39°53' W 075°11'0 0.0
2017-May-16 10:00N 39°53' W 075°11'0 0.0
2017-May-16 09:30N 39°53' W 075°11'0 0.0
2017-May-16 09:00N 39°53' W 075°11'0 0.0
2017-May-16 08:30N 39°53' W 075°11'0 0.0
2017-May-16 08:00N 39°53' W 075°11'0 0.0
2017-May-16 07:30N 39°53' W 075°11'0 0.0
2017-May-16 07:00N 39°53' W 075°11'0 0.0
2017-May-16 06:30N 39°53' W 075°11'0 0.0
2017-May-16 06:00N 39°53' W 075°11'0 0.0
2017-May-16 05:30N 39°53' W 075°11'0 0.0
2017-May-16 05:00N 39°53' W 075°11'0 0.0
2017-May-16 04:30N 39°53' W 075°11'0 0.0
2017-May-16 04:00N 39°53' W 075°11'0 0.0
2017-May-16 03:30N 39°53' W 075°11'0 0.0
2017-May-16 03:00N 39°53' W 075°11'0 0.0
2017-May-16 02:30N 39°53' W 075°11'0 0.0
2017-May-16 02:00N 39°53' W 075°11'0 0.0
2017-May-16 01:30N 39°53' W 075°11'1 2.4
2017-May-16 01:00N 39°53' W 075°10'2 3.3
2017-May-16 00:30N 39°54' W 075°08'2 3.1
2017-May-16 00:00N 39°53' W 075°09'1 2.6
2017-May-15 23:30N 39°53' W 075°11'0 0.0
2017-May-15 23:00N 39°53' W 075°11'0 0.0
2017-May-15 22:30N 39°53' W 075°11'0 0.0
2017-May-15 22:00N 39°53' W 075°11'0 0.0
2017-May-15 21:30N 39°53' W 075°11'0 0.0
2017-May-15 21:00N 39°53' W 075°11'0 0.0
2017-May-15 20:30N 39°53' W 075°11'0 0.0
2017-May-15 20:00N 39°53' W 075°11'0 0.0
2017-May-15 19:30N 39°53' W 075°11'0 0.0
2017-May-15 19:00N 39°53' W 075°11'0 0.0
2017-May-15 18:30N 39°53' W 075°11'0 0.0
2017-May-15 18:00N 39°53' W 075°11'0 0.0
2017-May-15 17:30N 39°53' W 075°11'0 0.0
2017-May-15 17:00N 39°53' W 075°11'0 0.0
2017-May-15 16:30N 39°53' W 075°11'0 0.0
2017-May-15 16:00N 39°53' W 075°11'0 0.0
2017-May-15 15:30N 39°53' W 075°11'0 0.0
2017-May-15 15:00N 39°53' W 075°11'0 0.0
2017-May-15 14:00N 39°53' W 075°11'0 0.0
2017-May-15 13:30N 39°53' W 075°11'0 0.0
2017-May-15 13:00N 39°53' W 075°11'0 0.0
2017-May-15 12:30N 39°53' W 075°11'0 0.0
2017-May-15 12:00N 39°53' W 075°11'0 0.0
2017-May-15 11:30N 39°53' W 075°11'0 0.0
2017-May-15 11:00N 39°53' W 075°11'0 0.0
2017-May-15 10:30N 39°53' W 075°11'0 0.0
2017-May-15 10:00N 39°53' W 075°11'0 0.0
2017-May-15 09:30N 39°53' W 075°11'0 0.0
2017-May-15 09:00N 39°53' W 075°11'0 0.0
2017-May-15 08:30N 39°53' W 075°11'0 0.0
2017-May-15 08:00N 39°53' W 075°11'0 0.0
2017-May-15 07:30N 39°53' W 075°11'0 0.0
2017-May-15 07:00N 39°53' W 075°11'0 0.0
2017-May-15 06:30N 39°53' W 075°11'0 0.0
2017-May-15 06:00N 39°53' W 075°11'0 0.0
2017-May-15 05:30N 39°53' W 075°11'0 0.0
2017-May-15 05:00N 39°53' W 075°11'0 0.0
2017-May-15 04:30N 39°53' W 075°11'0 0.0
2017-May-15 04:00N 39°53' W 075°11'0 0.0
2017-May-15 03:30N 39°53' W 075°11'0 0.0
2017-May-15 03:00N 39°53' W 075°11'0 0.0
2017-May-15 02:30N 39°53' W 075°11'0 0.0
2017-May-15 02:00N 39°53' W 075°11'0 0.0
2017-May-15 01:30N 39°53' W 075°11'0 0.0
2017-May-15 01:00N 39°53' W 075°11'0 0.0
2017-May-15 00:30N 39°53' W 075°11'0 0.0
2017-May-15 00:00N 39°53' W 075°11'0 0.0
2017-May-14 23:30N 39°53' W 075°11'0 0.0
2017-May-14 23:00N 39°53' W 075°11'0 0.0
2017-May-14 22:30N 39°53' W 075°11'0 0.0
2017-May-14 22:00N 39°53' W 075°11'0 0.0
2017-May-14 21:30N 39°53' W 075°11'0 0.0
2017-May-14 21:00N 39°53' W 075°11'0 0.0
2017-May-14 20:30N 39°53' W 075°11'0 0.0
2017-May-14 20:00N 39°53' W 075°11'0 0.0
2017-May-14 19:30N 39°53' W 075°11'0 0.0
2017-May-14 19:00N 39°53' W 075°11'0 0.0
2017-May-14 18:30N 39°53' W 075°11'0 0.0
2017-May-14 18:01N 39°53' W 075°11'3 5.0
2017-May-14 17:30N 39°54' W 075°08'1 2.6
2017-May-14 17:00N 39°53' W 075°09'0 0.7
2017-May-14 16:31N 39°53' W 075°08'1 1.3
2017-May-14 16:00N 39°54' W 075°08'0 0.0
2017-May-14 15:30N 39°54' W 075°08'0 0.0
2017-May-14 15:00N 39°54' W 075°08'0 0.0
2017-May-14 14:30N 39°54' W 075°08'0 0.0
2017-May-14 13:30N 39°54' W 075°08'0 0.0
2017-May-14 13:00N 39°54' W 075°08'0 0.0
2017-May-14 12:30N 39°54' W 075°08'0 0.0
2017-May-14 12:00N 39°54' W 075°08'0 0.0
2017-May-14 11:30N 39°54' W 075°08'0 0.0
2017-May-14 11:00N 39°54' W 075°08'0 0.0
2017-May-14 10:30N 39°54' W 075°08'0 0.0
2017-May-14 10:00N 39°54' W 075°08'0 0.0
2017-May-14 09:30N 39°54' W 075°08'0 0.0
2017-May-14 09:00N 39°54' W 075°08'0 0.0
2017-May-14 08:30N 39°54' W 075°08'0 0.0
2017-May-14 08:00N 39°54' W 075°08'0 0.0
2017-May-14 07:30N 39°54' W 075°08'0 0.0
2017-May-14 07:00N 39°54' W 075°08'0 0.0
2017-May-14 06:30N 39°54' W 075°08'0 0.0
2017-May-14 06:00N 39°54' W 075°08'0 0.0
2017-May-14 05:30N 39°54' W 075°08'3 6.6
2017-May-14 05:00N 39°57' W 075°08'3 5.3
2017-May-14 04:30N 39°59' W 075°05'0 0.0
2017-May-14 04:00N 39°59' W 075°05'1 2.8
2017-May-14 03:30N 39°58' W 075°07'4 7.9
2017-May-14 03:00N 39°54' W 075°08'3 5.4
2017-May-14 02:30N 39°53' W 075°11'0 0.0
2017-May-14 02:00N 39°53' W 075°11'0 0.0
2017-May-14 01:30N 39°53' W 075°11'0 0.0
2017-May-14 01:00N 39°53' W 075°11'0 0.0
2017-May-14 00:30N 39°53' W 075°11'0 0.0
2017-May-14 00:00N 39°53' W 075°11'0 0.0
2017-May-13 23:30N 39°53' W 075°11'0 0.0
2017-May-13 23:00N 39°53' W 075°11'0 0.0
2017-May-13 22:30N 39°53' W 075°11'0 0.0
2017-May-13 22:00N 39°53' W 075°11'0 0.2
2017-May-13 21:31N 39°53' W 075°11'0 0.2
2017-May-13 21:00N 39°53' W 075°11'0 0.0
2017-May-13 20:30N 39°53' W 075°11'0 0.0
2017-May-13 20:00N 39°53' W 075°11'0 0.0
2017-May-13 19:30N 39°53' W 075°11'0 0.0
2017-May-13 19:00N 39°53' W 075°11'0 0.0
2017-May-13 18:30N 39°53' W 075°11'0 0.0
2017-May-13 18:00N 39°53' W 075°11'0 0.0
2017-May-13 17:30N 39°53' W 075°11'0 0.0
2017-May-13 17:00N 39°53' W 075°11'0 0.0
2017-May-13 16:30N 39°53' W 075°11'0 0.0
2017-May-13 16:00N 39°53' W 075°11'0 0.0
2017-May-13 15:30N 39°53' W 075°11'0 0.0
2017-May-13 15:00N 39°53' W 075°11'0 0.0
2017-May-13 14:30N 39°53' W 075°11'0 0.0
2017-May-13 13:30N 39°53' W 075°11'0 0.0
2017-May-13 13:00N 39°53' W 075°11'0 0.0
2017-May-13 12:30N 39°53' W 075°11'0 0.0
2017-May-13 12:00N 39°53' W 075°11'0 0.0
2017-May-13 11:30N 39°53' W 075°11'0 0.0
2017-May-13 11:00N 39°53' W 075°11'0 0.6
2017-May-13 10:30N 39°53' W 075°11'4 9.0
2017-May-13 10:00N 39°57' W 075°08'3 5.5
2017-May-13 09:30N 39°59' W 075°05'0 0.2
2017-May-13 09:00N 39°59' W 075°05'1 1.0
2017-May-13 08:30N 39°59' W 075°06'0 0.4
2017-May-13 08:00N 39°59' W 075°06'0 0.0
2017-May-13 07:30N 39°59' W 075°06'2 4.0
2017-May-13 07:01N 39°58' W 075°08'5 9.6
2017-May-13 06:31N 39°53' W 075°10'611.6
2017-May-13 06:01N 39°51' W 075°17'612.7
2017-May-13 05:31N 39°48' W 075°24'612.6
2017-May-13 05:00N 39°44' W 075°30'1 2.4
2017-May-13 04:31N 39°43' W 075°31'0 0.0
2017-May-13 04:00N 39°43' W 075°31'0 0.0
2017-May-13 03:31N 39°43' W 075°31'0 0.0
2017-May-13 03:00N 39°43' W 075°31'0 0.0
2017-May-13 02:30N 39°43' W 075°31'0 0.0
2017-May-13 02:00N 39°43' W 075°31'0 0.0
2017-May-13 01:31N 39°43' W 075°31'0 0.0
2017-May-13 01:01N 39°43' W 075°31'0 0.0
2017-May-13 00:30N 39°43' W 075°31'0 0.0
2017-May-13 00:01N 39°43' W 075°31'0 0.0
2017-May-12 23:30N 39°43' W 075°31'  
Track history (hours):
 
Tides and Currents Weather Stations Pressure Air Temp Water Temp Dewpoint Dewpoint Depression Visibility Wind Speed Wind Dir Waves Ship Positions

Madeline

Owner: TUG MADELINE, LLC, NEW CASTLE, DE. More information available from US FCC via Universal Licensing System and Coast Guard Vessel Documentation Center.

Last reported at 2017-May-22 23:01 UTC. Time now 2017-May-22 23:20 UTC.
Position N 39°43' W 075°31'.

Length 23 m; draft 4.6 m.

Type: Tug. MMSI: 367335830.

Date/timePositionNaut miles runAvg speedWind from/ knotsBaromVisibWave heightAir tempDewpointWater temp
2017-May-22 23:01N 39°43' W 075°31'0 0.0
2017-May-22 22:30N 39°43' W 075°31'0 0.0
2017-May-22 22:00N 39°43' W 075°31'0 0.0
2017-May-22 21:31N 39°43' W 075°31'0 0.0
2017-May-22 21:00N 39°43' W 075°31'0 0.0
2017-May-22 20:31N 39°43' W 075°31'0 0.0
2017-May-22 20:00N 39°43' W 075°31'0 0.0
2017-May-22 19:31N 39°43' W 075°31'0 0.0
2017-May-22 19:00N 39°43' W 075°31'0 0.0
2017-May-22 18:30N 39°43' W 075°31'0 0.0
2017-May-22 18:00N 39°43' W 075°31'0 0.0
2017-May-22 17:30N 39°43' W 075°31'0 0.0
2017-May-22 17:00N 39°43' W 075°31'0 0.0
2017-May-22 16:30N 39°43' W 075°31'0 0.0
2017-May-22 16:00N 39°43' W 075°31'0 0.0
2017-May-22 15:30N 39°43' W 075°31'2 4.1
2017-May-22 15:00N 39°41' W 075°32'1110.7
2017-May-22 14:00N 39°30' W 075°33'611.2
2017-May-22 13:30N 39°25' W 075°31'612.4
2017-May-22 13:00N 39°20' W 075°26'612.0
2017-May-22 12:30N 39°16' W 075°21'612.1
2017-May-22 12:01N 39°11' W 075°16'612.0
2017-May-22 11:30N 39°06' W 075°12'11 1.8
2017-May-22 05:11N 38°55' W 075°09'0 0.1
2017-May-22 05:00N 38°55' W 075°09'0 0.0
2017-May-22 04:30N 38°55' W 075°09'0 0.0
2017-May-22 04:00N 38°55' W 075°09'1 2.9
2017-May-22 03:30N 38°54' W 075°07'4 4.4
2017-May-22 02:36N 38°57' W 075°11'0 0.1
2017-May-22 02:26N 38°57' W 075°11'0 0.6
2017-May-22 01:58N 38°57' W 075°11'4 8.6
2017-May-22 01:29N 38°55' W 075°06'1412.0
2017-May-22 00:19N 39°08' W 075°14'411.3
2017-May-21 23:59N 39°11' W 075°16'510.3
2017-May-21 23:30N 39°15' W 075°19'5 9.7
2017-May-21 23:00N 39°19' W 075°24'4 8.9
2017-May-21 22:30N 39°22' W 075°28'4 8.9
2017-May-21 22:01N 39°25' W 075°31'4 8.3
2017-May-21 21:31N 39°29' W 075°34'4 7.0
2017-May-21 21:00N 39°32' W 075°33'3 6.6
2017-May-21 20:31N 39°35' W 075°35'0 0.2
2017-May-21 20:00N 39°35' W 075°35'3 5.6
2017-May-21 19:30N 39°38' W 075°36'611.5
2017-May-21 19:01N 39°42' W 075°31'1 1.8
2017-May-21 18:30N 39°43' W 075°31'0 0.0
2017-May-21 18:00N 39°43' W 075°31'0 0.0
2017-May-21 17:30N 39°43' W 075°31'0 0.0
2017-May-21 17:00N 39°43' W 075°31'0 0.0
2017-May-21 16:30N 39°43' W 075°31'0 0.0
2017-May-21 16:00N 39°43' W 075°31'0 0.0
2017-May-21 15:30N 39°43' W 075°31'0 0.0
2017-May-21 15:00N 39°43' W 075°31'0 0.0
2017-May-21 14:00N 39°43' W 075°31'0 0.0
2017-May-21 13:30N 39°43' W 075°31'0 0.0
2017-May-21 13:00N 39°43' W 075°31'0 0.0
2017-May-21 12:30N 39°43' W 075°31'0 0.0
2017-May-21 12:00N 39°43' W 075°31'0 0.0
2017-May-21 11:30N 39°43' W 075°31'0 0.0
2017-May-21 11:00N 39°43' W 075°31'0 0.0
2017-May-21 10:30N 39°43' W 075°31'0 0.0
2017-May-21 10:00N 39°43' W 075°31'0 0.0
2017-May-21 09:30N 39°43' W 075°31'0 0.0
2017-May-21 09:00N 39°43' W 075°31'0 0.0
2017-May-21 08:30N 39°43' W 075°31'0 0.0
2017-May-21 08:00N 39°43' W 075°31'0 0.0
2017-May-21 07:30N 39°43' W 075°31'0 0.0
2017-May-21 07:00N 39°43' W 075°31'0 0.0
2017-May-21 06:30N 39°43' W 075°31'0 0.0
2017-May-21 06:00N 39°43' W 075°31'0 0.0
2017-May-21 05:30N 39°43' W 075°31'4 7.9
2017-May-21 05:00N 39°46' W 075°28'3 5.1
2017-May-21 04:22N 39°48' W 075°25'0 0.2
2017-May-21 04:01N 39°48' W 075°25'2 3.1
2017-May-21 03:30N 39°48' W 075°27'4 7.8
2017-May-21 03:01N 39°45' W 075°30'2 4.4
2017-May-21 02:31N 39°42' W 075°30'0 0.2
2017-May-21 02:00N 39°42' W 075°31'1 1.6
2017-May-21 01:31N 39°43' W 075°31'0 0.0
2017-May-21 01:01N 39°43' W 075°31'0 0.0
2017-May-21 00:30N 39°43' W 075°31'0 0.0
2017-May-21 00:01N 39°43' W 075°31'0 0.0
2017-May-20 23:31N 39°43' W 075°31'0 0.0
2017-May-20 23:01N 39°43' W 075°31'0 0.0
2017-May-20 22:30N 39°43' W 075°31'0 0.0
2017-May-20 22:00N 39°43' W 075°31'0 0.0
2017-May-20 21:30N 39°43' W 075°31'0 0.0
2017-May-20 21:01N 39°43' W 075°31'0 0.4
2017-May-20 20:30N 39°43' W 075°31'0 0.0
2017-May-20 20:00N 39°43' W 075°31'0 0.5
2017-May-20 19:30N 39°43' W 075°31'2 3.8
2017-May-20 19:01N 39°41' W 075°31'2 3.3
2017-May-20 18:30N 39°43' W 075°31'0 0.2
2017-May-20 18:01N 39°42' W 075°31'612.6
2017-May-20 17:30N 39°48' W 075°26'612.9
2017-May-20 17:00N 39°51' W 075°19'612.1
2017-May-20 16:30N 39°53' W 075°11'0 0.7
2017-May-20 16:00N 39°53' W 075°11'0 0.0
2017-May-20 15:30N 39°53' W 075°11'0 0.0
2017-May-20 15:00N 39°53' W 075°11'0 0.0
2017-May-20 14:30N 39°53' W 075°11'0 0.0
2017-May-20 13:30N 39°53' W 075°11'0 0.0
2017-May-20 13:00N 39°53' W 075°11'0 0.0
2017-May-20 12:30N 39°53' W 075°11'0 0.0
2017-May-20 12:00N 39°53' W 075°11'0 0.0
2017-May-20 11:30N 39°53' W 075°11'0 0.0
2017-May-20 11:00N 39°53' W 075°11'0 0.0
2017-May-20 10:30N 39°53' W 075°11'0 0.0
2017-May-20 10:00N 39°53' W 075°11'0 0.0
2017-May-20 09:30N 39°53' W 075°11'0 0.0
2017-May-20 09:00N 39°53' W 075°11'0 0.0
2017-May-20 08:30N 39°53' W 075°11'0 0.0
2017-May-20 08:00N 39°53' W 075°11'0 0.0
2017-May-20 07:30N 39°53' W 075°11'0 0.0
2017-May-20 07:00N 39°53' W 075°11'0 0.0
2017-May-20 06:30N 39°53' W 075°11'0 0.0
2017-May-20 06:00N 39°53' W 075°11'0 0.0
2017-May-20 05:30N 39°53' W 075°11'0 0.0
2017-May-20 05:00N 39°53' W 075°11'0 0.0
2017-May-20 04:30N 39°53' W 075°11'0 0.0
2017-May-20 04:00N 39°53' W 075°11'1 2.4
2017-May-20 03:30N 39°54' W 075°12'0 0.0
2017-May-20 02:57N 39°54' W 075°12'0 0.7
2017-May-20 02:30N 39°54' W 075°12'2 3.6
2017-May-20 02:00N 39°52' W 075°13'2 3.8
2017-May-20 01:30N 39°53' W 075°11'0 0.0
2017-May-20 01:00N 39°53' W 075°11'0 0.0
2017-May-20 00:30N 39°53' W 075°11'0 0.0
2017-May-20 00:00N 39°53' W 075°11'0 0.0
2017-May-19 23:30N 39°53' W 075°11'0 0.0
2017-May-19 23:00N 39°53' W 075°11'0 0.0
2017-May-19 22:30N 39°53' W 075°11'0 0.0
2017-May-19 22:00N 39°53' W 075°11'0 0.0
2017-May-19 21:30N 39°53' W 075°11'0 0.0
2017-May-19 21:00N 39°53' W 075°11'0 0.0
2017-May-19 20:30N 39°53' W 075°11'0 0.0
2017-May-19 20:00N 39°53' W 075°11'0 0.0
2017-May-19 19:30N 39°53' W 075°11'0 0.0
2017-May-19 19:00N 39°53' W 075°11'0 0.0
2017-May-19 18:30N 39°53' W 075°11'0 0.0
2017-May-19 18:00N 39°53' W 075°11'0 0.0
2017-May-19 17:30N 39°53' W 075°11'0 0.0
2017-May-19 17:00N 39°53' W 075°11'0 0.0
2017-May-19 16:30N 39°53' W 075°11'0 0.0
2017-May-19 16:00N 39°53' W 075°11'0 0.0
2017-May-19 15:30N 39°53' W 075°11'0 0.0
2017-May-19 15:00N 39°53' W 075°11'0 0.0
2017-May-19 14:00N 39°53' W 075°11'0 0.0
2017-May-19 13:30N 39°53' W 075°11'0 0.0
2017-May-19 13:00N 39°53' W 075°11'0 0.0
2017-May-19 12:30N 39°53' W 075°11'0 0.0
2017-May-19 12:00N 39°53' W 075°11'0 0.0
2017-May-19 11:30N 39°53' W 075°11'0 0.0
2017-May-19 11:00N 39°53' W 075°11'0 0.0
2017-May-19 10:30N 39°53' W 075°11'0 0.0
2017-May-19 10:00N 39°53' W 075°11'0 0.0
2017-May-19 09:30N 39°53' W 075°11'0 0.0
2017-May-19 09:00N 39°53' W 075°11'0 0.0
2017-May-19 08:30N 39°53' W 075°11'0 0.0
2017-May-19 08:00N 39°53' W 075°11'0 0.0
2017-May-19 07:30N 39°53' W 075°11'0 0.0
2017-May-19 07:00N 39°53' W 075°11'0 0.0
2017-May-19 06:30N 39°53' W 075°11'0 0.0
2017-May-19 06:00N 39°53' W 075°11'0 0.0
2017-May-19 05:30N 39°53' W 075°11'0 0.0
2017-May-19 05:00N 39°53' W 075°11'0 0.0
2017-May-19 04:30N 39°53' W 075°11'0 0.0
2017-May-19 04:00N 39°53' W 075°11'0 0.0
2017-May-19 03:30N 39°53' W 075°11'0 0.0
2017-May-19 03:00N 39°53' W 075°11'0 0.0
2017-May-19 02:30N 39°53' W 075°11'2 3.2
2017-May-19 02:00N 39°52' W 075°13'0 0.5
2017-May-19 01:30N 39°52' W 075°13'0 0.0
2017-May-19 01:00N 39°52' W 075°13'0 0.2
2017-May-19 00:30N 39°52' W 075°13'2 3.5
2017-May-19 00:00N 39°51' W 075°15'2 3.9
2017-May-18 23:23N 39°52' W 075°12'1 3.4
2017-May-18 23:00N 39°53' W 075°11'0 0.0
2017-May-18 22:30N 39°53' W 075°11'0 0.0
2017-May-18 22:00N 39°53' W 075°11'0 0.0
2017-May-18 21:30N 39°53' W 075°11'0 0.0
2017-May-18 21:00N 39°53' W 075°11'0 0.0
2017-May-18 20:30N 39°53' W 075°11'0 0.0
2017-May-18 20:00N 39°53' W 075°11'0 0.0
2017-May-18 19:30N 39°53' W 075°11'0 0.0
2017-May-18 19:00N 39°53' W 075°11'0 0.0
2017-May-18 18:30N 39°53' W 075°11'0 0.0
2017-May-18 18:00N 39°53' W 075°11'0 0.0
2017-May-18 17:30N 39°53' W 075°11'0 0.0
2017-May-18 17:00N 39°53' W 075°11'0 0.0
2017-May-18 16:30N 39°53' W 075°11'0 0.0
2017-May-18 16:00N 39°53' W 075°11'0 0.0
2017-May-18 15:30N 39°53' W 075°11'0 0.0
2017-May-18 15:00N 39°53' W 075°11'0 0.0
2017-May-18 14:00N 39°53' W 075°11'0 0.0
2017-May-18 13:30N 39°53' W 075°11'0 0.0
2017-May-18 13:00N 39°53' W 075°11'2 3.9
2017-May-18 12:30N 39°52' W 075°13'3 5.2
2017-May-18 12:00N 39°51' W 075°16'0 0.1
2017-May-18 11:29N 39°51' W 075°16'0 0.0
2017-May-18 11:00N 39°51' W 075°16'0 0.6
2017-May-18 10:30N 39°51' W 075°16'0 0.4
2017-May-18 10:00N 39°51' W 075°16'1 2.7
2017-May-18 09:30N 39°51' W 075°14'3 6.1
2017-May-18 09:00N 39°53' W 075°11'0 0.0
2017-May-18 08:30N 39°53' W 075°11'0 0.0
2017-May-18 07:56N 39°53' W 075°11'0 0.0
2017-May-18 07:30N 39°53' W 075°11'0 0.0
2017-May-18 07:00N 39°53' W 075°11'0 0.0
2017-May-18 06:30N 39°53' W 075°11'0 0.0
2017-May-18 06:00N 39°53' W 075°11'0 0.0
2017-May-18 05:30N 39°53' W 075°11'0 0.0
2017-May-18 05:00N 39°53' W 075°11'0 0.0
2017-May-18 04:30N 39°53' W 075°11'0 0.0
2017-May-18 04:00N 39°53' W 075°11'0 0.0
2017-May-18 03:30N 39°53' W 075°11'0 0.0
2017-May-18 03:00N 39°53' W 075°11'0 0.0
2017-May-18 02:30N 39°53' W 075°11'0 0.0
2017-May-18 02:00N 39°53' W 075°11'0 0.0
2017-May-18 01:30N 39°53' W 075°11'0 0.0
2017-May-18 01:00N 39°53' W 075°11'0 0.0
2017-May-18 00:30N 39°53' W 075°11'0 0.0
2017-May-18 00:00N 39°53' W 075°11'0 0.3
2017-May-17 23:30N 39°53' W 075°11'0 0.3
2017-May-17 23:00N 39°53' W 075°11'0 0.0
2017-May-17 22:30N 39°53' W 075°11'0 0.0
2017-May-17 22:00N 39°53' W 075°11'0 0.0
2017-May-17 21:30N 39°53' W 075°11'0 0.0
2017-May-17 21:00N 39°53' W 075°11'0 0.0
2017-May-17 20:30N 39°53' W 075°11'0 0.0
2017-May-17 20:00N 39°53' W 075°11'0 0.0
2017-May-17 19:30N 39°53' W 075°11'0 0.0
2017-May-17 19:00N 39°53' W 075°11'0 0.0
2017-May-17 18:30N 39°53' W 075°11'0 0.0
2017-May-17 18:00N 39°53' W 075°11'0 0.0
2017-May-17 17:31N 39°53' W 075°11'3 7.0
2017-May-17 17:00N 39°51' W 075°15'0 0.4
2017-May-17 16:30N 39°51' W 075°15'0 0.0
2017-May-17 16:00N 39°51' W 075°15'0 0.0
2017-May-17 15:30N 39°51' W 075°15'0 0.0
2017-May-17 15:00N 39°51' W 075°15'4 3.7
2017-May-17 14:00N 39°53' W 075°11'0 0.0
2017-May-17 13:30N 39°53' W 075°11'0 0.0
2017-May-17 13:00N 39°53' W 075°11'0 0.0
2017-May-17 12:30N 39°53' W 075°11'0 0.0
2017-May-17 12:00N 39°53' W 075°11'0 0.0
2017-May-17 11:30N 39°53' W 075°11'0 0.0
2017-May-17 11:00N 39°53' W 075°11'0 0.0
2017-May-17 10:30N 39°53' W 075°11'0 0.0
2017-May-17 10:00N 39°53' W 075°11'0 0.0
2017-May-17 09:30N 39°53' W 075°11'0 0.0
2017-May-17 09:00N 39°53' W 075°11'0 0.0
2017-May-17 08:30N 39°53' W 075°11'0 0.0
2017-May-17 08:00N 39°53' W 075°11'0 0.0
2017-May-17 07:30N 39°53' W 075°11'0 0.0
2017-May-17 07:00N 39°53' W 075°11'1 1.5
2017-May-17 06:30N 39°54' W 075°12'1 2.6
2017-May-17 06:00N 39°55' W 075°13'1 2.2
2017-May-17 05:30N 39°54' W 075°12'1 2.1
2017-May-17 05:00N 39°53' W 075°11'0 0.0
2017-May-17 04:30N 39°53' W 075°11'0 0.0
2017-May-17 04:00N 39°53' W 075°11'0 0.0
2017-May-17 03:30N 39°53' W 075°11'0 0.0
2017-May-17 03:00N 39°53' W 075°11'0 0.0
2017-May-17 02:30N 39°53' W 075°11'0 0.0
2017-May-17 02:00N 39°53' W 075°11'0 0.0
2017-May-17 01:30N 39°53' W 075°11'0 0.0
2017-May-17 01:00N 39°53' W 075°11'2 3.1
2017-May-17 00:30N 39°52' W 075°13'1 2.9
2017-May-17 00:00N 39°51' W 075°14'0 0.4
2017-May-16 23:30N 39°51' W 075°14'1 1.1
2017-May-16 23:00N 39°52' W 075°14'1 2.6
2017-May-16 22:30N 39°52' W 075°12'1 2.3
2017-May-16 22:00N 39°53' W 075°11'0 0.0
2017-May-16 21:30N 39°53' W 075°11'0 0.0
2017-May-16 21:00N 39°53' W 075°11'0 0.0
2017-May-16 20:30N 39°53' W 075°11'0 0.0
2017-May-16 20:00N 39°53' W 075°11'0 0.0
2017-May-16 19:30N 39°53' W 075°11'0 0.0
2017-May-16 19:00N 39°53' W 075°11'0 0.1
2017-May-16 18:31N 39°53' W 075°11'0 0.2
2017-May-16 18:00N 39°53' W 075°11'0 0.0
2017-May-16 17:30N 39°53' W 075°11'0 0.0
2017-May-16 17:00N 39°53' W 075°11'0 0.0
2017-May-16 16:30N 39°53' W 075°11'0 0.0
2017-May-16 16:00N 39°53' W 075°11'0 0.0
2017-May-16 15:30N 39°53' W 075°11'0 0.0
2017-May-16 15:00N 39°53' W 075°11'0 0.0
2017-May-16 14:30N 39°53' W 075°11'0 0.0
2017-May-16 13:30N 39°53' W 075°11'0 0.0
2017-May-16 13:00N 39°53' W 075°11'0 0.0
2017-May-16 12:30N 39°53' W 075°11'0 0.0
2017-May-16 12:00N 39°53' W 075°11'0 0.0
2017-May-16 11:30N 39°53' W 075°11'0 0.0
2017-May-16 11:00N 39°53' W 075°11'0 0.0
2017-May-16 10:30N 39°53' W 075°11'0 0.0
2017-May-16 10:00N 39°53' W 075°11'0 0.0
2017-May-16 09:30N 39°53' W 075°11'0 0.0
2017-May-16 09:00N 39°53' W 075°11'0 0.0
2017-May-16 08:30N 39°53' W 075°11'0 0.0
2017-May-16 08:00N 39°53' W 075°11'0 0.0
2017-May-16 07:30N 39°53' W 075°11'0 0.0
2017-May-16 07:00N 39°53' W 075°11'0 0.0
2017-May-16 06:30N 39°53' W 075°11'0 0.0
2017-May-16 06:00N 39°53' W 075°11'0 0.0
2017-May-16 05:30N 39°53' W 075°11'0 0.0
2017-May-16 05:00N 39°53' W 075°11'0 0.0
2017-May-16 04:30N 39°53' W 075°11'0 0.0
2017-May-16 04:00N 39°53' W 075°11'0 0.0
2017-May-16 03:30N 39°53' W 075°11'0 0.0
2017-May-16 03:00N 39°53' W 075°11'0 0.0
2017-May-16 02:30N 39°53' W 075°11'0 0.0
2017-May-16 02:00N 39°53' W 075°11'0 0.0
2017-May-16 01:30N 39°53' W 075°11'1 2.4
2017-May-16 01:00N 39°53' W 075°10'2 3.3
2017-May-16 00:30N 39°54' W 075°08'2 3.1
2017-May-16 00:00N 39°53' W 075°09'1 2.6
2017-May-15 23:30N 39°53' W 075°11'0 0.0
2017-May-15 23:00N 39°53' W 075°11'0 0.0
2017-May-15 22:30N 39°53' W 075°11'0 0.0
2017-May-15 22:00N 39°53' W 075°11'0 0.0
2017-May-15 21:30N 39°53' W 075°11'0 0.0
2017-May-15 21:00N 39°53' W 075°11'0 0.0
2017-May-15 20:30N 39°53' W 075°11'0 0.0
2017-May-15 20:00N 39°53' W 075°11'0 0.0
2017-May-15 19:30N 39°53' W 075°11'0 0.0
2017-May-15 19:00N 39°53' W 075°11'0 0.0
2017-May-15 18:30N 39°53' W 075°11'0 0.0
2017-May-15 18:00N 39°53' W 075°11'0 0.0
2017-May-15 17:30N 39°53' W 075°11'0 0.0
2017-May-15 17:00N 39°53' W 075°11'0 0.0
2017-May-15 16:30N 39°53' W 075°11'0 0.0
2017-May-15 16:00N 39°53' W 075°11'0 0.0
2017-May-15 15:30N 39°53' W 075°11'0 0.0
2017-May-15 15:00N 39°53' W 075°11'0 0.0
2017-May-15 14:00N 39°53' W 075°11'0 0.0
2017-May-15 13:30N 39°53' W 075°11'0 0.0
2017-May-15 13:00N 39°53' W 075°11'0 0.0
2017-May-15 12:30N 39°53' W 075°11'0 0.0
2017-May-15 12:00N 39°53' W 075°11'0 0.0
2017-May-15 11:30N 39°53' W 075°11'0 0.0
2017-May-15 11:00N 39°53' W 075°11'0 0.0
2017-May-15 10:30N 39°53' W 075°11'0 0.0
2017-May-15 10:00N 39°53' W 075°11'0 0.0
2017-May-15 09:30N 39°53' W 075°11'0 0.0
2017-May-15 09:00N 39°53' W 075°11'0 0.0
2017-May-15 08:30N 39°53' W 075°11'0 0.0
2017-May-15 08:00N 39°53' W 075°11'0 0.0
2017-May-15 07:30N 39°53' W 075°11'0 0.0
2017-May-15 07:00N 39°53' W 075°11'0 0.0
2017-May-15 06:30N 39°53' W 075°11'0 0.0
2017-May-15 06:00N 39°53' W 075°11'0 0.0
2017-May-15 05:30N 39°53' W 075°11'0 0.0
2017-May-15 05:00N 39°53' W 075°11'0 0.0
2017-May-15 04:30N 39°53' W 075°11'0 0.0
2017-May-15 04:00N 39°53' W 075°11'0 0.0
2017-May-15 03:30N 39°53' W 075°11'0 0.0
2017-May-15 03:00N 39°53' W 075°11'0 0.0
2017-May-15 02:30N 39°53' W 075°11'0 0.0
2017-May-15 02:00N 39°53' W 075°11'0 0.0
2017-May-15 01:30N 39°53' W 075°11'0 0.0
2017-May-15 01:00N 39°53' W 075°11'0 0.0
2017-May-15 00:30N 39°53' W 075°11'0 0.0
2017-May-15 00:00N 39°53' W 075°11'0 0.0
2017-May-14 23:30N 39°53' W 075°11'0 0.0
2017-May-14 23:00N 39°53' W 075°11'0 0.0
2017-May-14 22:30N 39°53' W 075°11'0 0.0
2017-May-14 22:00N 39°53' W 075°11'0 0.0
2017-May-14 21:30N 39°53' W 075°11'0 0.0
2017-May-14 21:00N 39°53' W 075°11'0 0.0
2017-May-14 20:30N 39°53' W 075°11'0 0.0
2017-May-14 20:00N 39°53' W 075°11'0 0.0
2017-May-14 19:30N 39°53' W 075°11'0 0.0
2017-May-14 19:00N 39°53' W 075°11'0 0.0
2017-May-14 18:30N 39°53' W 075°11'0 0.0
2017-May-14 18:01N 39°53' W 075°11'3 5.0
2017-May-14 17:30N 39°54' W 075°08'1 2.6
2017-May-14 17:00N 39°53' W 075°09'0 0.7
2017-May-14 16:31N 39°53' W 075°08'1 1.3
2017-May-14 16:00N 39°54' W 075°08'0 0.0
2017-May-14 15:30N 39°54' W 075°08'0 0.0
2017-May-14 15:00N 39°54' W 075°08'0 0.0
2017-May-14 14:30N 39°54' W 075°08'0 0.0
2017-May-14 13:30N 39°54' W 075°08'0 0.0
2017-May-14 13:00N 39°54' W 075°08'0 0.0
2017-May-14 12:30N 39°54' W 075°08'0 0.0
2017-May-14 12:00N 39°54' W 075°08'0 0.0
2017-May-14 11:30N 39°54' W 075°08'0 0.0
2017-May-14 11:00N 39°54' W 075°08'0 0.0
2017-May-14 10:30N 39°54' W 075°08'0 0.0
2017-May-14 10:00N 39°54' W 075°08'0 0.0
2017-May-14 09:30N 39°54' W 075°08'0 0.0
2017-May-14 09:00N 39°54' W 075°08'0 0.0
2017-May-14 08:30N 39°54' W 075°08'0 0.0
2017-May-14 08:00N 39°54' W 075°08'0 0.0
2017-May-14 07:30N 39°54' W 075°08'0 0.0
2017-May-14 07:00N 39°54' W 075°08'0 0.0
2017-May-14 06:30N 39°54' W 075°08'0 0.0
2017-May-14 06:00N 39°54' W 075°08'0 0.0
2017-May-14 05:30N 39°54' W 075°08'3 6.6
2017-May-14 05:00N 39°57' W 075°08'3 5.3
2017-May-14 04:30N 39°59' W 075°05'0 0.0
2017-May-14 04:00N 39°59' W 075°05'1 2.8
2017-May-14 03:30N 39°58' W 075°07'4 7.9
2017-May-14 03:00N 39°54' W 075°08'3 5.4
2017-May-14 02:30N 39°53' W 075°11'0 0.0
2017-May-14 02:00N 39°53' W 075°11'0 0.0
2017-May-14 01:30N 39°53' W 075°11'0 0.0
2017-May-14 01:00N 39°53' W 075°11'0 0.0
2017-May-14 00:30N 39°53' W 075°11'0 0.0
2017-May-14 00:00N 39°53' W 075°11'0 0.0
2017-May-13 23:30N 39°53' W 075°11'0 0.0
2017-May-13 23:00N 39°53' W 075°11'0 0.0
2017-May-13 22:30N 39°53' W 075°11'0 0.0
2017-May-13 22:00N 39°53' W 075°11'0 0.2
2017-May-13 21:31N 39°53' W 075°11'0 0.2
2017-May-13 21:00N 39°53' W 075°11'0 0.0
2017-May-13 20:30N 39°53' W 075°11'0 0.0
2017-May-13 20:00N 39°53' W 075°11'0 0.0
2017-May-13 19:30N 39°53' W 075°11'0 0.0
2017-May-13 19:00N 39°53' W 075°11'0 0.0
2017-May-13 18:30N 39°53' W 075°11'0 0.0
2017-May-13 18:00N 39°53' W 075°11'0 0.0
2017-May-13 17:30N 39°53' W 075°11'0 0.0
2017-May-13 17:00N 39°53' W 075°11'0 0.0
2017-May-13 16:30N 39°53' W 075°11'0 0.0
2017-May-13 16:00N 39°53' W 075°11'0 0.0
2017-May-13 15:30N 39°53' W 075°11'0 0.0
2017-May-13 15:00N 39°53' W 075°11'0 0.0
2017-May-13 14:30N 39°53' W 075°11'0 0.0
2017-May-13 13:30N 39°53' W 075°11'0 0.0
2017-May-13 13:00N 39°53' W 075°11'0 0.0
2017-May-13 12:30N 39°53' W 075°11'0 0.0
2017-May-13 12:00N 39°53' W 075°11'0 0.0
2017-May-13 11:30N 39°53' W 075°11'0 0.0
2017-May-13 11:00N 39°53' W 075°11'0 0.6
2017-May-13 10:30N 39°53' W 075°11'4 9.0
2017-May-13 10:00N 39°57' W 075°08'3 5.5
2017-May-13 09:30N 39°59' W 075°05'0 0.2
2017-May-13 09:00N 39°59' W 075°05'1 1.0
2017-May-13 08:30N 39°59' W 075°06'0 0.4
2017-May-13 08:00N 39°59' W 075°06'0 0.0
2017-May-13 07:30N 39°59' W 075°06'2 4.0
2017-May-13 07:01N 39°58' W 075°08'5 9.6
2017-May-13 06:31N 39°53' W 075°10'611.6
2017-May-13 06:01N 39°51' W 075°17'612.7
2017-May-13 05:31N 39°48' W 075°24'612.6
2017-May-13 05:00N 39°44' W 075°30'1 2.4
2017-May-13 04:31N 39°43' W 075°31'0 0.0
2017-May-13 04:00N 39°43' W 075°31'0 0.0
2017-May-13 03:31N 39°43' W 075°31'0 0.0
2017-May-13 03:00N 39°43' W 075°31'0 0.0
2017-May-13 02:30N 39°43' W 075°31'0 0.0
2017-May-13 02:00N 39°43' W 075°31'0 0.0
2017-May-13 01:31N 39°43' W 075°31'0 0.0
2017-May-13 01:01N 39°43' W 075°31'0 0.0
2017-May-13 00:30N 39°43' W 075°31'0 0.0
2017-May-13 00:01N 39°43' W 075°31'0 0.0
2017-May-12 23:30N 39°43' W 075°31'  

Dump ship's entire track history